sensor_id;sensor_type;location;lat;lon;timestamp;P1;durP1;ratioP1;P2;durP2;ratioP2
7843;SDS011;3967;48.702;9.326;2023-06-01T00:02:01;5.57;;;2.77;;
7843;SDS011;3967;48.702;9.326;2023-06-01T00:04:28;3.67;;;2.60;;
7843;SDS011;3967;48.702;9.326;2023-06-01T00:06:55;4.17;;;2.57;;
7843;SDS011;3967;48.702;9.326;2023-06-01T00:09:22;3.50;;;2.70;;
7843;SDS011;3967;48.702;9.326;2023-06-01T00:11:49;4.47;;;2.40;;
7843;SDS011;3967;48.702;9.326;2023-06-01T00:14:16;4.90;;;2.83;;
7843;SDS011;3967;48.702;9.326;2023-06-01T00:16:42;5.50;;;2.93;;
7843;SDS011;3967;48.702;9.326;2023-06-01T00:19:11;4.33;;;2.60;;
7843;SDS011;3967;48.702;9.326;2023-06-01T00:21:39;6.20;;;2.63;;
7843;SDS011;3967;48.702;9.326;2023-06-01T00:24:07;3.50;;;2.50;;
7843;SDS011;3967;48.702;9.326;2023-06-01T00:26:34;3.37;;;2.67;;
7843;SDS011;3967;48.702;9.326;2023-06-01T00:29:01;4.53;;;2.63;;
7843;SDS011;3967;48.702;9.326;2023-06-01T00:31:27;5.07;;;2.50;;
7843;SDS011;3967;48.702;9.326;2023-06-01T00:33:54;3.57;;;2.40;;
7843;SDS011;3967;48.702;9.326;2023-06-01T00:36:21;6.00;;;2.83;;
7843;SDS011;3967;48.702;9.326;2023-06-01T00:38:48;3.53;;;2.50;;
7843;SDS011;3967;48.702;9.326;2023-06-01T00:41:15;3.77;;;2.50;;
7843;SDS011;3967;48.702;9.326;2023-06-01T00:43:41;3.97;;;2.57;;
7843;SDS011;3967;48.702;9.326;2023-06-01T00:46:08;3.70;;;2.30;;
7843;SDS011;3967;48.702;9.326;2023-06-01T00:48:36;3.90;;;2.70;;
7843;SDS011;3967;48.702;9.326;2023-06-01T00:51:03;3.07;;;2.77;;
7843;SDS011;3967;48.702;9.326;2023-06-01T00:53:30;3.57;;;2.50;;
7843;SDS011;3967;48.702;9.326;2023-06-01T00:55:58;2.60;;;2.40;;
7843;SDS011;3967;48.702;9.326;2023-06-01T00:58:25;4.07;;;2.73;;
7843;SDS011;3967;48.702;9.326;2023-06-01T01:00:52;3.70;;;2.70;;
7843;SDS011;3967;48.702;9.326;2023-06-01T01:03:20;4.93;;;2.77;;
7843;SDS011;3967;48.702;9.326;2023-06-01T01:05:47;5.03;;;4.40;;
7843;SDS011;3967;48.702;9.326;2023-06-01T01:11:10;4.13;;;3.27;;
7843;SDS011;3967;48.702;9.326;2023-06-01T01:13:52;5.07;;;4.00;;
7843;SDS011;3967;48.702;9.326;2023-06-01T01:16:32;6.17;;;3.53;;
7843;SDS011;3967;48.702;9.326;2023-06-01T01:30:36;5.70;;;3.80;;
7843;SDS011;3967;48.702;9.326;2023-06-01T01:33:06;5.77;;;3.40;;
7843;SDS011;3967;48.702;9.326;2023-06-01T01:35:35;6.00;;;3.60;;
7843;SDS011;3967;48.702;9.326;2023-06-01T01:38:03;4.10;;;3.70;;
7843;SDS011;3967;48.702;9.326;2023-06-01T01:40:29;4.37;;;3.70;;
7843;SDS011;3967;48.702;9.326;2023-06-01T01:42:56;4.93;;;3.90;;
7843;SDS011;3967;48.702;9.326;2023-06-01T01:45:23;6.97;;;3.60;;
7843;SDS011;3967;48.702;9.326;2023-06-01T01:47:54;6.67;;;4.00;;
7843;SDS011;3967;48.702;9.326;2023-06-01T01:50:31;6.70;;;3.50;;
7843;SDS011;3967;48.702;9.326;2023-06-01T01:53:02;4.10;;;3.70;;
7843;SDS011;3967;48.702;9.326;2023-06-01T01:55:33;4.90;;;3.50;;
7843;SDS011;3967;48.702;9.326;2023-06-01T01:58:01;5.77;;;3.47;;
7843;SDS011;3967;48.702;9.326;2023-06-01T02:00:29;5.80;;;3.40;;
7843;SDS011;3967;48.702;9.326;2023-06-01T02:02:58;4.33;;;3.30;;
7843;SDS011;3967;48.702;9.326;2023-06-01T02:05:26;6.80;;;3.80;;
7843;SDS011;3967;48.702;9.326;2023-06-01T02:07:53;5.57;;;3.23;;
7843;SDS011;3967;48.702;9.326;2023-06-01T02:10:19;3.97;;;3.10;;
7843;SDS011;3967;48.702;9.326;2023-06-01T02:12:46;7.00;;;3.13;;
7843;SDS011;3967;48.702;9.326;2023-06-01T02:15:13;8.83;;;3.43;;
7843;SDS011;3967;48.702;9.326;2023-06-01T02:17:40;3.87;;;3.10;;
7843;SDS011;3967;48.702;9.326;2023-06-01T02:20:09;6.97;;;2.97;;
7843;SDS011;3967;48.702;9.326;2023-06-01T02:22:36;5.67;;;3.73;;
7843;SDS011;3967;48.702;9.326;2023-06-01T02:25:03;4.03;;;3.47;;
7843;SDS011;3967;48.702;9.326;2023-06-01T02:27:31;7.33;;;2.87;;
7843;SDS011;3967;48.702;9.326;2023-06-01T02:29:58;3.97;;;2.80;;
7843;SDS011;3967;48.702;9.326;2023-06-01T02:32:24;7.07;;;3.30;;
7843;SDS011;3967;48.702;9.326;2023-06-01T02:34:52;5.77;;;2.70;;
7843;SDS011;3967;48.702;9.326;2023-06-01T02:37:19;4.93;;;3.23;;
7843;SDS011;3967;48.702;9.326;2023-06-01T02:39:46;10.70;;;3.37;;
7843;SDS011;3967;48.702;9.326;2023-06-01T02:42:13;5.20;;;3.27;;
7843;SDS011;3967;48.702;9.326;2023-06-01T02:44:40;7.50;;;3.43;;
7843;SDS011;3967;48.702;9.326;2023-06-01T02:47:07;8.23;;;4.00;;
7843;SDS011;3967;48.702;9.326;2023-06-01T02:49:34;3.83;;;3.20;;
7843;SDS011;3967;48.702;9.326;2023-06-01T02:52:01;6.63;;;3.43;;
7843;SDS011;3967;48.702;9.326;2023-06-01T02:54:27;6.00;;;3.07;;
7843;SDS011;3967;48.702;9.326;2023-06-01T02:56:54;5.00;;;3.40;;
7843;SDS011;3967;48.702;9.326;2023-06-01T02:59:21;5.93;;;3.60;;
7843;SDS011;3967;48.702;9.326;2023-06-01T03:01:47;5.97;;;3.53;;
7843;SDS011;3967;48.702;9.326;2023-06-01T03:04:17;4.03;;;2.80;;
7843;SDS011;3967;48.702;9.326;2023-06-01T03:06:45;4.67;;;3.00;;
7843;SDS011;3967;48.702;9.326;2023-06-01T03:09:11;5.17;;;3.47;;
7843;SDS011;3967;48.702;9.326;2023-06-01T03:11:41;3.20;;;2.90;;
7843;SDS011;3967;48.702;9.326;2023-06-01T03:14:08;5.40;;;3.80;;
7843;SDS011;3967;48.702;9.326;2023-06-01T03:16:35;4.13;;;3.17;;
7843;SDS011;3967;48.702;9.326;2023-06-01T03:19:02;5.23;;;3.20;;
7843;SDS011;3967;48.702;9.326;2023-06-01T03:21:29;3.30;;;3.00;;
7843;SDS011;3967;48.702;9.326;2023-06-01T03:23:57;3.23;;;3.03;;
7843;SDS011;3967;48.702;9.326;2023-06-01T03:26:24;4.97;;;2.83;;
7843;SDS011;3967;48.702;9.326;2023-06-01T03:28:51;6.33;;;3.50;;
7843;SDS011;3967;48.702;9.326;2023-06-01T03:31:18;5.57;;;3.33;;
7843;SDS011;3967;48.702;9.326;2023-06-01T03:33:45;4.83;;;3.50;;
7843;SDS011;3967;48.702;9.326;2023-06-01T03:36:11;4.40;;;3.33;;
7843;SDS011;3967;48.702;9.326;2023-06-01T03:38:38;4.20;;;3.80;;
7843;SDS011;3967;48.702;9.326;2023-06-01T03:41:05;3.83;;;3.10;;
7843;SDS011;3967;48.702;9.326;2023-06-01T03:43:32;5.97;;;3.70;;
7843;SDS011;3967;48.702;9.326;2023-06-01T03:45:58;3.83;;;3.37;;
7843;SDS011;3967;48.702;9.326;2023-06-01T03:48:26;5.53;;;3.97;;
7843;SDS011;3967;48.702;9.326;2023-06-01T03:50:52;6.60;;;3.57;;
7843;SDS011;3967;48.702;9.326;2023-06-01T03:53:19;4.37;;;3.37;;
7843;SDS011;3967;48.702;9.326;2023-06-01T03:55:46;4.23;;;3.10;;
7843;SDS011;3967;48.702;9.326;2023-06-01T03:58:14;4.30;;;3.20;;
7843;SDS011;3967;48.702;9.326;2023-06-01T04:00:41;3.87;;;3.47;;
7843;SDS011;3967;48.702;9.326;2023-06-01T04:03:09;6.33;;;3.60;;
7843;SDS011;3967;48.702;9.326;2023-06-01T04:05:36;5.63;;;3.57;;
7843;SDS011;3967;48.702;9.326;2023-06-01T04:08:03;4.70;;;3.57;;
7843;SDS011;3967;48.702;9.326;2023-06-01T04:10:30;6.77;;;3.67;;
7843;SDS011;3967;48.702;9.326;2023-06-01T04:12:56;5.50;;;3.40;;
7843;SDS011;3967;48.702;9.326;2023-06-01T04:15:23;4.93;;;3.10;;
7843;SDS011;3967;48.702;9.326;2023-06-01T04:17:50;4.10;;;3.70;;
7843;SDS011;3967;48.702;9.326;2023-06-01T04:20:17;3.90;;;3.20;;
7843;SDS011;3967;48.702;9.326;2023-06-01T04:22:44;4.13;;;3.73;;
7843;SDS011;3967;48.702;9.326;2023-06-01T04:25:13;4.13;;;3.73;;
7843;SDS011;3967;48.702;9.326;2023-06-01T04:27:45;5.63;;;3.70;;
7843;SDS011;3967;48.702;9.326;2023-06-01T04:30:13;5.97;;;3.60;;
7843;SDS011;3967;48.702;9.326;2023-06-01T04:32:42;6.60;;;4.43;;
7843;SDS011;3967;48.702;9.326;2023-06-01T04:35:15;6.40;;;4.10;;
7843;SDS011;3967;48.702;9.326;2023-06-01T04:37:42;4.53;;;4.10;;
7843;SDS011;3967;48.702;9.326;2023-06-01T04:40:10;4.87;;;3.67;;
7843;SDS011;3967;48.702;9.326;2023-06-01T04:42:41;7.07;;;4.70;;
7843;SDS011;3967;48.702;9.326;2023-06-01T04:45:15;4.47;;;3.90;;
7843;SDS011;3967;48.702;9.326;2023-06-01T04:47:42;8.20;;;4.57;;
7843;SDS011;3967;48.702;9.326;2023-06-01T04:50:11;5.03;;;3.80;;
7843;SDS011;3967;48.702;9.326;2023-06-01T04:52:39;5.20;;;3.83;;
7843;SDS011;3967;48.702;9.326;2023-06-01T04:55:06;5.90;;;4.03;;
7843;SDS011;3967;48.702;9.326;2023-06-01T04:57:34;10.87;;;4.43;;
7843;SDS011;3967;48.702;9.326;2023-06-01T05:00:02;7.63;;;3.93;;
7843;SDS011;3967;48.702;9.326;2023-06-01T05:02:39;5.93;;;4.53;;
7843;SDS011;3967;48.702;9.326;2023-06-01T05:05:08;6.67;;;4.57;;
7843;SDS011;3967;48.702;9.326;2023-06-01T05:07:36;25.00;;;5.10;;
7843;SDS011;3967;48.702;9.326;2023-06-01T05:10:03;9.83;;;4.70;;
7843;SDS011;3967;48.702;9.326;2023-06-01T05:12:32;13.63;;;5.33;;
7843;SDS011;3967;48.702;9.326;2023-06-01T05:15:00;8.90;;;4.83;;
7843;SDS011;3967;48.702;9.326;2023-06-01T05:17:27;14.00;;;5.43;;
7843;SDS011;3967;48.702;9.326;2023-06-01T05:19:54;11.67;;;4.93;;
7843;SDS011;3967;48.702;9.326;2023-06-01T05:22:23;6.67;;;4.67;;
7843;SDS011;3967;48.702;9.326;2023-06-01T05:24:50;5.33;;;4.57;;
7843;SDS011;3967;48.702;9.326;2023-06-01T05:27:17;8.33;;;5.13;;
7843;SDS011;3967;48.702;9.326;2023-06-01T05:29:44;5.67;;;4.70;;
7843;SDS011;3967;48.702;9.326;2023-06-01T05:32:11;7.23;;;5.33;;
7843;SDS011;3967;48.702;9.326;2023-06-01T05:34:37;9.07;;;4.70;;
7843;SDS011;3967;48.702;9.326;2023-06-01T05:37:04;9.07;;;4.73;;
7843;SDS011;3967;48.702;9.326;2023-06-01T05:39:31;5.03;;;3.90;;
7843;SDS011;3967;48.702;9.326;2023-06-01T05:41:57;7.53;;;4.47;;
7843;SDS011;3967;48.702;9.326;2023-06-01T05:44:24;11.67;;;4.70;;
7843;SDS011;3967;48.702;9.326;2023-06-01T05:46:51;12.00;;;5.50;;
7843;SDS011;3967;48.702;9.326;2023-06-01T05:49:19;12.13;;;5.27;;
7843;SDS011;3967;48.702;9.326;2023-06-01T05:51:46;6.97;;;5.03;;
7843;SDS011;3967;48.702;9.326;2023-06-01T05:54:12;9.93;;;5.10;;
7843;SDS011;3967;48.702;9.326;2023-06-01T05:56:39;9.07;;;5.13;;
7843;SDS011;3967;48.702;9.326;2023-06-01T05:59:09;8.27;;;5.17;;
7843;SDS011;3967;48.702;9.326;2023-06-01T06:01:35;13.00;;;4.63;;
7843;SDS011;3967;48.702;9.326;2023-06-01T06:04:02;7.70;;;4.70;;
7843;SDS011;3967;48.702;9.326;2023-06-01T06:06:30;7.50;;;4.13;;
7843;SDS011;3967;48.702;9.326;2023-06-01T06:08:58;11.73;;;4.90;;
7843;SDS011;3967;48.702;9.326;2023-06-01T06:11:25;12.03;;;5.53;;
7843;SDS011;3967;48.702;9.326;2023-06-01T06:13:52;6.27;;;3.77;;
7843;SDS011;3967;48.702;9.326;2023-06-01T06:16:19;8.83;;;4.40;;
7843;SDS011;3967;48.702;9.326;2023-06-01T06:18:46;10.30;;;4.50;;
7843;SDS011;3967;48.702;9.326;2023-06-01T06:21:13;8.10;;;4.60;;
7843;SDS011;3967;48.702;9.326;2023-06-01T06:23:42;8.20;;;4.70;;
7843;SDS011;3967;48.702;9.326;2023-06-01T06:26:09;6.77;;;4.37;;
7843;SDS011;3967;48.702;9.326;2023-06-01T06:28:36;6.63;;;4.17;;
7843;SDS011;3967;48.702;9.326;2023-06-01T06:31:02;8.07;;;3.87;;
7843;SDS011;3967;48.702;9.326;2023-06-01T06:33:29;8.60;;;3.83;;
7843;SDS011;3967;48.702;9.326;2023-06-01T06:35:56;6.67;;;3.83;;
7843;SDS011;3967;48.702;9.326;2023-06-01T06:38:23;6.00;;;3.30;;
7843;SDS011;3967;48.702;9.326;2023-06-01T06:40:50;4.13;;;3.47;;
7843;SDS011;3967;48.702;9.326;2023-06-01T06:43:17;3.57;;;3.23;;
7843;SDS011;3967;48.702;9.326;2023-06-01T06:45:44;3.97;;;3.07;;
7843;SDS011;3967;48.702;9.326;2023-06-01T06:48:11;4.93;;;3.10;;
7843;SDS011;3967;48.702;9.326;2023-06-01T06:50:38;5.57;;;3.70;;
7843;SDS011;3967;48.702;9.326;2023-06-01T06:53:07;6.53;;;4.17;;
7843;SDS011;3967;48.702;9.326;2023-06-01T06:55:34;7.30;;;3.70;;
7843;SDS011;3967;48.702;9.326;2023-06-01T06:58:01;7.13;;;4.07;;
7843;SDS011;3967;48.702;9.326;2023-06-01T07:00:28;6.23;;;3.70;;
7843;SDS011;3967;48.702;9.326;2023-06-01T07:02:55;5.00;;;3.17;;
7843;SDS011;3967;48.702;9.326;2023-06-01T07:05:22;9.00;;;3.80;;
7843;SDS011;3967;48.702;9.326;2023-06-01T07:07:49;4.37;;;3.03;;
7843;SDS011;3967;48.702;9.326;2023-06-01T07:10:17;5.80;;;3.07;;
7843;SDS011;3967;48.702;9.326;2023-06-01T07:12:43;10.43;;;3.33;;
7843;SDS011;3967;48.702;9.326;2023-06-01T07:15:10;5.47;;;2.90;;
7843;SDS011;3967;48.702;9.326;2023-06-01T07:17:37;5.33;;;3.33;;
7843;SDS011;3967;48.702;9.326;2023-06-01T07:20:06;7.03;;;3.27;;
7843;SDS011;3967;48.702;9.326;2023-06-01T07:22:37;5.60;;;3.10;;
7843;SDS011;3967;48.702;9.326;2023-06-01T07:25:13;6.03;;;3.33;;
7843;SDS011;3967;48.702;9.326;2023-06-01T07:27:40;5.47;;;3.40;;
7843;SDS011;3967;48.702;9.326;2023-06-01T07:30:10;4.63;;;3.10;;
7843;SDS011;3967;48.702;9.326;2023-06-01T07:32:38;3.40;;;2.77;;
7843;SDS011;3967;48.702;9.326;2023-06-01T07:35:05;6.17;;;3.40;;
7843;SDS011;3967;48.702;9.326;2023-06-01T07:37:37;5.40;;;3.20;;
7843;SDS011;3967;48.702;9.326;2023-06-01T07:40:04;6.00;;;3.17;;
7843;SDS011;3967;48.702;9.326;2023-06-01T07:42:34;6.17;;;3.60;;
7843;SDS011;3967;48.702;9.326;2023-06-01T07:45:00;7.77;;;3.23;;
7843;SDS011;3967;48.702;9.326;2023-06-01T07:47:28;3.43;;;2.80;;
7843;SDS011;3967;48.702;9.326;2023-06-01T07:49:56;5.03;;;3.33;;
7843;SDS011;3967;48.702;9.326;2023-06-01T07:52:23;4.87;;;3.30;;
7843;SDS011;3967;48.702;9.326;2023-06-01T07:54:50;7.47;;;2.90;;
7843;SDS011;3967;48.702;9.326;2023-06-01T07:57:17;4.37;;;2.90;;
7843;SDS011;3967;48.702;9.326;2023-06-01T07:59:44;6.97;;;4.47;;
7843;SDS011;3967;48.702;9.326;2023-06-01T08:02:11;6.50;;;3.20;;
7843;SDS011;3967;48.702;9.326;2023-06-01T08:04:39;5.70;;;2.97;;
7843;SDS011;3967;48.702;9.326;2023-06-01T08:07:06;3.72;;;3.28;;
7843;SDS011;3967;48.702;9.326;2023-06-01T08:09:33;5.47;;;3.33;;
7843;SDS011;3967;48.702;9.326;2023-06-01T08:12:01;3.10;;;2.77;;
7843;SDS011;3967;48.702;9.326;2023-06-01T08:14:28;5.13;;;3.27;;
7843;SDS011;3967;48.702;9.326;2023-06-01T08:16:55;7.00;;;3.13;;
7843;SDS011;3967;48.702;9.326;2023-06-01T08:19:22;4.63;;;3.17;;
7843;SDS011;3967;48.702;9.326;2023-06-01T08:21:49;8.03;;;2.97;;
7843;SDS011;3967;48.702;9.326;2023-06-01T08:24:15;4.55;;;3.03;;
7843;SDS011;3967;48.702;9.326;2023-06-01T08:26:42;5.43;;;3.63;;
7843;SDS011;3967;48.702;9.326;2023-06-01T08:29:09;3.67;;;3.15;;
7843;SDS011;3967;48.702;9.326;2023-06-01T08:31:36;2.97;;;2.67;;
7843;SDS011;3967;48.702;9.326;2023-06-01T08:34:04;3.85;;;3.00;;
7843;SDS011;3967;48.702;9.326;2023-06-01T08:36:31;3.35;;;2.92;;
7843;SDS011;3967;48.702;9.326;2023-06-01T08:38:59;5.88;;;3.67;;
7843;SDS011;3967;48.702;9.326;2023-06-01T08:41:29;4.53;;;3.05;;
7843;SDS011;3967;48.702;9.326;2023-06-01T08:44:03;6.35;;;3.17;;
7843;SDS011;3967;48.702;9.326;2023-06-01T08:46:32;3.05;;;2.75;;
7843;SDS011;3967;48.702;9.326;2023-06-01T08:49:00;5.78;;;3.20;;
7843;SDS011;3967;48.702;9.326;2023-06-01T08:51:28;5.85;;;3.00;;
7843;SDS011;3967;48.702;9.326;2023-06-01T08:53:59;5.25;;;3.00;;
7843;SDS011;3967;48.702;9.326;2023-06-01T08:56:31;4.40;;;3.38;;
7843;SDS011;3967;48.702;9.326;2023-06-01T08:58:58;7.90;;;3.28;;
7843;SDS011;3967;48.702;9.326;2023-06-01T09:01:26;7.72;;;3.53;;
7843;SDS011;3967;48.702;9.326;2023-06-01T09:03:54;3.30;;;3.00;;
7843;SDS011;3967;48.702;9.326;2023-06-01T09:06:21;5.13;;;2.95;;
7843;SDS011;3967;48.702;9.326;2023-06-01T09:08:48;6.82;;;3.50;;
7843;SDS011;3967;48.702;9.326;2023-06-01T09:11:16;6.75;;;3.28;;
7843;SDS011;3967;48.702;9.326;2023-06-01T09:13:43;8.50;;;3.40;;
7843;SDS011;3967;48.702;9.326;2023-06-01T09:16:10;5.88;;;3.13;;
7843;SDS011;3967;48.702;9.326;2023-06-01T09:18:50;6.53;;;3.30;;
7843;SDS011;3967;48.702;9.326;2023-06-01T09:21:19;4.88;;;2.97;;
7843;SDS011;3967;48.702;9.326;2023-06-01T09:23:47;4.70;;;3.15;;
7843;SDS011;3967;48.702;9.326;2023-06-01T09:26:15;5.28;;;3.20;;
7843;SDS011;3967;48.702;9.326;2023-06-01T09:28:53;8.48;;;5.10;;
7843;SDS011;3967;48.702;9.326;2023-06-01T09:31:36;4.97;;;3.20;;
7843;SDS011;3967;48.702;9.326;2023-06-01T09:34:06;3.53;;;3.03;;
7843;SDS011;3967;48.702;9.326;2023-06-01T09:36:34;3.83;;;3.05;;
7843;SDS011;3967;48.702;9.326;2023-06-01T09:39:05;6.93;;;3.35;;
7843;SDS011;3967;48.702;9.326;2023-06-01T09:41:44;4.50;;;3.08;;
7843;SDS011;3967;48.702;9.326;2023-06-01T09:44:11;5.45;;;3.28;;
7843;SDS011;3967;48.702;9.326;2023-06-01T09:46:56;4.35;;;3.22;;
7843;SDS011;3967;48.702;9.326;2023-06-01T09:49:25;3.60;;;3.30;;
7843;SDS011;3967;48.702;9.326;2023-06-01T09:52:07;4.28;;;3.42;;
7843;SDS011;3967;48.702;9.326;2023-06-01T09:54:37;4.50;;;2.90;;
7843;SDS011;3967;48.702;9.326;2023-06-01T09:57:10;6.80;;;3.20;;
7843;SDS011;3967;48.702;9.326;2023-06-01T09:59:39;6.80;;;3.50;;
7843;SDS011;3967;48.702;9.326;2023-06-01T10:02:11;4.65;;;3.38;;
7843;SDS011;3967;48.702;9.326;2023-06-01T10:04:39;6.20;;;3.38;;
7843;SDS011;3967;48.702;9.326;2023-06-01T10:07:07;3.47;;;3.17;;
7843;SDS011;3967;48.702;9.326;2023-06-01T10:09:37;3.53;;;3.15;;
7843;SDS011;3967;48.702;9.326;2023-06-01T10:12:05;4.28;;;3.15;;
7843;SDS011;3967;48.702;9.326;2023-06-01T10:14:33;7.75;;;3.47;;
7843;SDS011;3967;48.702;9.326;2023-06-01T10:17:02;5.15;;;3.60;;
7843;SDS011;3967;48.702;9.326;2023-06-01T10:19:30;7.45;;;3.63;;
7843;SDS011;3967;48.702;9.326;2023-06-01T10:21:57;4.05;;;3.30;;
7843;SDS011;3967;48.702;9.326;2023-06-01T10:24:25;4.28;;;3.53;;
7843;SDS011;3967;48.702;9.326;2023-06-01T10:29:25;3.85;;;3.45;;
7843;SDS011;3967;48.702;9.326;2023-06-01T10:31:55;4.38;;;3.28;;
7843;SDS011;3967;48.702;9.326;2023-06-01T10:34:42;3.97;;;3.50;;
7843;SDS011;3967;48.702;9.326;2023-06-01T10:37:11;5.28;;;3.40;;
7843;SDS011;3967;48.702;9.326;2023-06-01T10:39:38;3.88;;;3.28;;
7843;SDS011;3967;48.702;9.326;2023-06-01T10:57:33;6.53;;;3.03;;
7843;SDS011;3967;48.702;9.326;2023-06-01T11:00:10;4.28;;;2.90;;
7843;SDS011;3967;48.702;9.326;2023-06-01T11:21:26;4.85;;;3.40;;
7843;SDS011;3967;48.702;9.326;2023-06-01T11:26:36;6.13;;;3.38;;
7843;SDS011;3967;48.702;9.326;2023-06-01T11:31:36;5.47;;;3.83;;
7843;SDS011;3967;48.702;9.326;2023-06-01T11:34:08;5.22;;;3.00;;
7843;SDS011;3967;48.702;9.326;2023-06-01T11:36:36;8.63;;;3.40;;
7843;SDS011;3967;48.702;9.326;2023-06-01T11:39:04;4.35;;;3.13;;
7843;SDS011;3967;48.702;9.326;2023-06-01T11:41:45;4.35;;;3.13;;
7843;SDS011;3967;48.702;9.326;2023-06-01T11:44:12;5.43;;;3.17;;
7843;SDS011;3967;48.702;9.326;2023-06-01T11:46:52;3.40;;;3.10;;
7843;SDS011;3967;48.702;9.326;2023-06-01T11:49:21;5.40;;;3.15;;
7843;SDS011;3967;48.702;9.326;2023-06-01T11:51:48;5.80;;;3.45;;
7843;SDS011;3967;48.702;9.326;2023-06-01T11:54:21;4.60;;;3.38;;
7843;SDS011;3967;48.702;9.326;2023-06-01T11:56:53;9.73;;;3.38;;
7843;SDS011;3967;48.702;9.326;2023-06-01T11:59:24;7.75;;;3.10;;
7843;SDS011;3967;48.702;9.326;2023-06-01T12:01:51;3.72;;;2.97;;
7843;SDS011;3967;48.702;9.326;2023-06-01T12:04:20;3.55;;;3.20;;
7843;SDS011;3967;48.702;9.326;2023-06-01T12:07:02;4.28;;;3.22;;
7843;SDS011;3967;48.702;9.326;2023-06-01T12:09:32;4.20;;;3.38;;
7843;SDS011;3967;48.702;9.326;2023-06-01T12:12:00;5.10;;;3.55;;
7843;SDS011;3967;48.702;9.326;2023-06-01T12:14:27;5.10;;;3.33;;
7843;SDS011;3967;48.702;9.326;2023-06-01T12:16:55;3.85;;;3.33;;
7843;SDS011;3967;48.702;9.326;2023-06-01T12:19:29;5.40;;;3.33;;
7843;SDS011;3967;48.702;9.326;2023-06-01T12:21:58;8.52;;;3.83;;
7843;SDS011;3967;48.702;9.326;2023-06-01T12:24:29;4.68;;;3.50;;
7843;SDS011;3967;48.702;9.326;2023-06-01T12:26:59;3.40;;;3.10;;
7843;SDS011;3967;48.702;9.326;2023-06-01T12:32:08;3.90;;;3.33;;
7843;SDS011;3967;48.702;9.326;2023-06-01T12:34:36;3.78;;;3.38;;
7843;SDS011;3967;48.702;9.326;2023-06-01T12:37:15;6.03;;;3.67;;
7843;SDS011;3967;48.702;9.326;2023-06-01T12:39:52;3.45;;;3.00;;
7843;SDS011;3967;48.702;9.326;2023-06-01T12:42:33;3.90;;;3.00;;
7843;SDS011;3967;48.702;9.326;2023-06-01T12:45:05;4.78;;;3.58;;
7843;SDS011;3967;48.702;9.326;2023-06-01T12:50:07;3.55;;;2.83;;
7843;SDS011;3967;48.702;9.326;2023-06-01T12:52:36;5.65;;;3.22;;
7843;SDS011;3967;48.702;9.326;2023-06-01T12:55:03;3.78;;;2.92;;
7843;SDS011;3967;48.702;9.326;2023-06-01T12:57:31;3.78;;;2.92;;
7843;SDS011;3967;48.702;9.326;2023-06-01T12:59:58;5.55;;;3.20;;
7843;SDS011;3967;48.702;9.326;2023-06-01T13:02:26;3.90;;;3.47;;
7843;SDS011;3967;48.702;9.326;2023-06-01T13:04:53;3.95;;;3.50;;
7843;SDS011;3967;48.702;9.326;2023-06-01T13:07:20;3.67;;;3.38;;
7843;SDS011;3967;48.702;9.326;2023-06-01T13:09:49;4.78;;;3.22;;
7843;SDS011;3967;48.702;9.326;2023-06-01T13:12:17;5.65;;;3.53;;
7843;SDS011;3967;48.702;9.326;2023-06-01T13:14:47;5.00;;;3.40;;
7843;SDS011;3967;48.702;9.326;2023-06-01T13:17:15;3.08;;;2.88;;
7843;SDS011;3967;48.702;9.326;2023-06-01T13:19:41;4.15;;;3.40;;
7843;SDS011;3967;48.702;9.326;2023-06-01T13:22:09;3.50;;;3.20;;
7843;SDS011;3967;48.702;9.326;2023-06-01T13:24:37;4.05;;;3.22;;
7843;SDS011;3967;48.702;9.326;2023-06-01T13:27:24;3.97;;;3.50;;
7843;SDS011;3967;48.702;9.326;2023-06-01T13:29:50;5.65;;;3.17;;
7843;SDS011;3967;48.702;9.326;2023-06-01T13:32:17;10.27;;;3.58;;
7843;SDS011;3967;48.702;9.326;2023-06-01T13:34:44;3.53;;;3.10;;
7843;SDS011;3967;48.702;9.326;2023-06-01T13:37:11;4.55;;;3.17;;
7843;SDS011;3967;48.702;9.326;2023-06-01T13:39:38;4.13;;;3.20;;
7843;SDS011;3967;48.702;9.326;2023-06-01T13:42:06;5.55;;;3.15;;
7843;SDS011;3967;48.702;9.326;2023-06-01T13:44:33;3.88;;;2.85;;
7843;SDS011;3967;48.702;9.326;2023-06-01T13:47:00;5.43;;;3.60;;
7843;SDS011;3967;48.702;9.326;2023-06-01T13:49:28;4.43;;;3.30;;
7843;SDS011;3967;48.702;9.326;2023-06-01T13:51:55;5.53;;;3.05;;
7843;SDS011;3967;48.702;9.326;2023-06-01T13:54:22;8.27;;;3.33;;
7843;SDS011;3967;48.702;9.326;2023-06-01T13:56:49;3.20;;;2.92;;
7843;SDS011;3967;48.702;9.326;2023-06-01T13:59:15;3.15;;;2.85;;
7843;SDS011;3967;48.702;9.326;2023-06-01T14:01:42;3.30;;;3.00;;
7843;SDS011;3967;48.702;9.326;2023-06-01T14:04:09;4.65;;;3.30;;
7843;SDS011;3967;48.702;9.326;2023-06-01T14:06:36;3.70;;;3.25;;
7843;SDS011;3967;48.702;9.326;2023-06-01T14:09:03;6.40;;;3.15;;
7843;SDS011;3967;48.702;9.326;2023-06-01T14:11:30;5.28;;;3.38;;
7843;SDS011;3967;48.702;9.326;2023-06-01T14:13:56;3.97;;;3.30;;
7843;SDS011;3967;48.702;9.326;2023-06-01T14:16:23;4.13;;;3.60;;
7843;SDS011;3967;48.702;9.326;2023-06-01T14:18:50;4.72;;;3.38;;
7843;SDS011;3967;48.702;9.326;2023-06-01T14:21:17;4.97;;;3.00;;
7843;SDS011;3967;48.702;9.326;2023-06-01T14:23:43;8.77;;;3.13;;
7843;SDS011;3967;48.702;9.326;2023-06-01T14:26:11;3.63;;;3.00;;
7843;SDS011;3967;48.702;9.326;2023-06-01T14:28:37;3.95;;;3.05;;
7843;SDS011;3967;48.702;9.326;2023-06-01T14:31:04;3.20;;;2.90;;
7843;SDS011;3967;48.702;9.326;2023-06-01T14:33:31;3.95;;;2.80;;
7843;SDS011;3967;48.702;9.326;2023-06-01T14:35:58;4.80;;;3.15;;
7843;SDS011;3967;48.702;9.326;2023-06-01T14:38:25;4.63;;;2.95;;
7843;SDS011;3967;48.702;9.326;2023-06-01T14:40:52;5.82;;;3.20;;
7843;SDS011;3967;48.702;9.326;2023-06-01T14:43:19;3.28;;;2.75;;
7843;SDS011;3967;48.702;9.326;2023-06-01T14:45:46;4.75;;;3.10;;
7843;SDS011;3967;48.702;9.326;2023-06-01T14:48:13;4.43;;;3.08;;
7843;SDS011;3967;48.702;9.326;2023-06-01T14:50:39;3.35;;;2.47;;
7843;SDS011;3967;48.702;9.326;2023-06-01T14:53:06;4.75;;;2.80;;
7843;SDS011;3967;48.702;9.326;2023-06-01T14:55:33;4.50;;;3.08;;
7843;SDS011;3967;48.702;9.326;2023-06-01T14:58:00;6.35;;;3.13;;
7843;SDS011;3967;48.702;9.326;2023-06-01T15:00:28;3.75;;;2.80;;
7843;SDS011;3967;48.702;9.326;2023-06-01T15:02:55;4.05;;;2.65;;
7843;SDS011;3967;48.702;9.326;2023-06-01T15:05:22;3.00;;;2.70;;
7843;SDS011;3967;48.702;9.326;2023-06-01T15:07:49;4.90;;;2.67;;
7843;SDS011;3967;48.702;9.326;2023-06-01T15:10:16;4.82;;;2.95;;
7843;SDS011;3967;48.702;9.326;2023-06-01T15:12:42;3.72;;;2.42;;
7843;SDS011;3967;48.702;9.326;2023-06-01T15:15:09;4.07;;;2.67;;
7843;SDS011;3967;48.702;9.326;2023-06-01T15:17:36;3.53;;;2.22;;
7843;SDS011;3967;48.702;9.326;2023-06-01T15:20:03;3.05;;;2.45;;
7843;SDS011;3967;48.702;9.326;2023-06-01T15:22:32;7.10;;;2.40;;
7843;SDS011;3967;48.702;9.326;2023-06-01T15:25:02;3.03;;;2.20;;
7843;SDS011;3967;48.702;9.326;2023-06-01T15:27:29;3.85;;;2.40;;
7843;SDS011;3967;48.702;9.326;2023-06-01T15:29:55;7.97;;;2.50;;
7843;SDS011;3967;48.702;9.326;2023-06-01T15:32:22;2.67;;;2.20;;
7843;SDS011;3967;48.702;9.326;2023-06-01T15:34:49;2.90;;;1.90;;
7843;SDS011;3967;48.702;9.326;2023-06-01T15:37:16;3.85;;;2.50;;
7843;SDS011;3967;48.702;9.326;2023-06-01T15:39:44;4.85;;;2.08;;
7843;SDS011;3967;48.702;9.326;2023-06-01T15:42:11;5.80;;;2.20;;
7843;SDS011;3967;48.702;9.326;2023-06-01T15:44:41;1.90;;;1.77;;
7843;SDS011;3967;48.702;9.326;2023-06-01T15:47:09;2.78;;;2.08;;
7843;SDS011;3967;48.702;9.326;2023-06-01T15:49:39;3.42;;;1.60;;
7843;SDS011;3967;48.702;9.326;2023-06-01T15:52:07;4.65;;;1.75;;
7843;SDS011;3967;48.702;9.326;2023-06-01T15:54:34;2.33;;;1.88;;
7843;SDS011;3967;48.702;9.326;2023-06-01T15:57:02;2.42;;;2.00;;
7843;SDS011;3967;48.702;9.326;2023-06-01T15:59:30;7.10;;;2.83;;
7843;SDS011;3967;48.702;9.326;2023-06-01T16:01:57;2.10;;;1.90;;
7843;SDS011;3967;48.702;9.326;2023-06-01T16:04:26;4.05;;;2.17;;
7843;SDS011;3967;48.702;9.326;2023-06-01T16:06:53;2.40;;;1.80;;
7843;SDS011;3967;48.702;9.326;2023-06-01T16:09:20;2.85;;;2.10;;
7843;SDS011;3967;48.702;9.326;2023-06-01T16:11:47;2.90;;;1.67;;
7843;SDS011;3967;48.702;9.326;2023-06-01T16:14:14;3.38;;;1.77;;
7843;SDS011;3967;48.702;9.326;2023-06-01T16:16:41;3.35;;;1.90;;
7843;SDS011;3967;48.702;9.326;2023-06-01T16:19:07;4.18;;;1.98;;
7843;SDS011;3967;48.702;9.326;2023-06-01T16:21:34;2.97;;;1.60;;
7843;SDS011;3967;48.702;9.326;2023-06-01T16:24:02;3.92;;;1.75;;